Pellston, MI (49769)

1:15 PM EST on February 07, 2016 (GMT -0500)
Creekside, 4 Miles WSW Bliss | | Change Station
CLOSE
Current Station
Personal Weather Station
Location: Bliss Township, MI
Elevation: 708 ft
Nearby Weather Stations

Elev 708 ft 45.65 °N, 84.92 °W | Updated 23 seconds ago

Overcast
Overcast
34.3 °F
Feels Like 30 °F
N
5.0
Wind Variable Wind from SE
Gusts 8.0 mph

Today
High -- | Low -- °F
--% Chance of Precip.
Yesterday
High -- | Low -- °F
Precip. -- in
Pressure 29.66 in
Visibility 6.0 miles
Clouds Mostly Cloudy 900 ft
Overcast 1400 ft
Windchill 30 °F
Dew Point 32 °F
Humidity 93%
Rainfall 0.00 in
Snow Depth Not available.
7:53 AM 5:54 PM
Waning Crescent, 1% visible
SPECI KPLN 071804Z AUTO 14007KT 6SM BR BKN009 OVC014 02/00 A2966 RMK AO2 CIG 007V011 T00170000
Pressure 29.66 in
Visibility 6.0 miles
Clouds Mostly Cloudy 900 ft
Overcast 1400 ft
Windchill 30 °F
Dew Point 32 °F
Humidity 93%
Rainfall 0.00 in
Snow Depth Not available.
7:53 AM 5:54 PM
Waning Crescent, 1% visible
SPECI KPLN 071804Z AUTO 14007KT 6SM BR BKN009 OVC014 02/00 A2966 RMK AO2 CIG 007V011 T00170000

10-Day Weather Forecast

Almanac

Astronomy

Feb. 07, 2016 Rise Set
Actual Time
Civil Twilight
Nautical Twilight
Astronomical Twilight
Moon
Length of Visible Light
Length of Day
Tomorrow will be .
, % of the Moon is Illuminated

Today's Extremes

State Highs State Lows

Community

WunderPhotos

Upload Photos

1,891,274 photos uploaded!

WunderBlog® & News

Nearby

Air Quality

  Air Quality AQ Index Pollutant
Not available.

Snow Depth

Station Depth Elevation

Earthquake Activity

City Distance Mag. Time & Date
Minimum magnitude displayed is 2.5.

Coastal Water Temperatures

Place Temperature

Stations

Nearby Weather Stations

Station Location Temp. Windchill Dew Point Humidity Wind Precip. Elev Updated Type
                   

Watches & Warnings

There are currently no watches in effect.